sensor_id;sensor_type;location;lat;lon;timestamp;pressure;altitude;pressure_sealevel;temperature;humidity
61740;BME280;47645;45.288;12.038;2023-04-16T00:04:31;1010.0836752618994;;;8.9439453125;97.90989999604604
61740;BME280;47645;45.288;12.038;2023-04-16T00:14:32;1010.054712284954;;;9.0;96.90579621756604
61740;BME280;47645;45.288;12.038;2023-04-16T00:24:32;1010.0363767669719;;;8.89296875;96.37985452468165
61740;BME280;47645;45.288;12.038;2023-04-16T00:34:33;1009.913641650346;;;9.122265625;94.46846063148814
61740;BME280;47645;45.288;12.038;2023-04-16T00:44:35;1009.875036611123;;;8.6482421875;97.04418258035976
61740;BME280;47645;45.288;12.038;2023-04-16T00:54:34;1009.9442329049089;;;9.0662109375;93.42347910575972
61740;BME280;47645;45.288;12.038;2023-04-16T01:04:35;1009.9117441380508;;;9.101953125;92.34428357162882
61740;BME280;47645;45.288;12.038;2023-04-16T01:14:37;1009.9727362180037;;;8.87265625;93.40001945767453
61740;BME280;47645;45.288;12.038;2023-04-16T01:24:37;1009.9600805771124;;;9.0814453125;91.19147208053582
61740;BME280;47645;45.288;12.038;2023-04-16T01:34:37;1009.926455085659;;;9.1833984375;89.6492567426252
61740;BME280;47645;45.288;12.038;2023-04-16T01:44:38;1009.9901494953035;;;9.3109375;87.58797984654097
61740;BME280;47645;45.288;12.038;2023-04-16T01:54:38;1010.0550650443081;;;9.005078125;89.06393484600387
61740;BME280;47645;45.288;12.038;2023-04-16T02:04:41;1010.1717545679464;;;8.8166015625;89.74207462087894
61740;BME280;47645;45.288;12.038;2023-04-16T02:14:40;1010.183824148237;;;9.132421875;87.88322724513819
61740;BME280;47645;45.288;12.038;2023-04-16T02:24:40;1010.1672603317962;;;8.9796875;87.58320281114196
61740;BME280;47645;45.288;12.038;2023-04-16T02:34:42;1010.1665601825938;;;8.7859375;88.95604808100207
61740;BME280;47645;45.288;12.038;2023-04-16T02:44:42;1010.0920180943526;;;8.5921875;88.84138589863949
61740;BME280;47645;45.288;12.038;2023-04-16T02:54:42;1010.248287726318;;;8.704296875;87.47510577355798
61740;BME280;47645;45.288;12.038;2023-04-16T03:04:43;1010.296319452118;;;8.6330078125;87.89067761200042
61740;BME280;47645;45.288;12.038;2023-04-16T03:14:43;1010.4069913387632;;;8.475;89.59483333355466
61740;BME280;47645;45.288;12.038;2023-04-16T03:24:44;1010.4546396054831;;;8.14375;92.76821947357797
61740;BME280;47645;45.288;12.038;2023-04-16T03:34:45;1010.5605635775486;;;8.0876953125;92.30753342188349
61740;BME280;47645;45.288;12.038;2023-04-16T03:44:46;1010.6163831315283;;;7.9296875;94.10307644489377
61740;BME280;47645;45.288;12.038;2023-04-16T03:54:46;1010.6410817509993;;;7.8837890625;94.11423725939599
61740;BME280;47645;45.288;12.038;2023-04-16T04:04:47;1010.7059101606674;;;7.91953125;93.51968088955653
61740;BME280;47645;45.288;12.038;2023-04-16T04:14:48;1010.9147502258395;;;7.573046875;96.91930967603393
61740;BME280;47645;45.288;12.038;2023-04-16T04:24:48;1010.924423188956;;;7.583203125;95.61989587099256
61740;BME280;47645;45.288;12.038;2023-04-16T04:34:49;1010.9572124921625;;;7.837890625;92.88251923579702
61740;BME280;47645;45.288;12.038;2023-04-16T04:44:50;1011.0864355872433;;;7.700390625;93.90310492465159
61740;BME280;47645;45.288;12.038;2023-04-16T04:54:51;1011.2616549643774;;;7.8583984375;91.82142248827701
61740;BME280;47645;45.288;12.038;2023-04-16T05:04:51;1011.3778121002119;;;7.9755859375;90.95118078813775
61740;BME280;47645;45.288;12.038;2023-04-16T05:14:52;1011.4855847340294;;;8.14375;90.41515406292274
61740;BME280;47645;45.288;12.038;2023-04-16T05:24:52;1011.5835540692948;;;8.566796875;88.47858241728694
61740;BME280;47645;45.288;12.038;2023-04-16T05:34:53;1011.737917290134;;;8.673828125;87.89538771808247
61740;BME280;47645;45.288;12.038;2023-04-16T05:44:54;1011.8351123892903;;;8.8470703125;87.53612371965257
61740;BME280;47645;45.288;12.038;2023-04-16T05:54:54;1011.9582435995598;;;8.8166015625;88.99940652458626
61740;BME280;47645;45.288;12.038;2023-04-16T06:04:55;1012.0862601611686;;;9.122265625;86.03901704714468
61740;BME280;47645;45.288;12.038;2023-04-16T06:14:55;1012.040843280383;;;9.6166015625;85.71685982982102
61740;BME280;47645;45.288;12.038;2023-04-16T06:24:56;1012.016356392242;;;10.0294921875;83.54378262463366
61740;BME280;47645;45.288;12.038;2023-04-16T06:34:58;1012.1067049385039;;;10.406640625;78.88281993751418
61740;BME280;47645;45.288;12.038;2023-04-16T06:44:58;1012.1524226461645;;;10.72265625;78.66715168259346
61740;BME280;47645;45.288;12.038;2023-04-16T06:54:58;1012.2335097158532;;;10.8806640625;79.6713266755656
61740;BME280;47645;45.288;12.038;2023-04-16T07:04:59;1012.1867090395539;;;11.3138671875;79.44982306881411
61740;BME280;47645;45.288;12.038;2023-04-16T07:15:00;1012.224773865821;;;11.5380859375;76.03359016530054
61740;BME280;47645;45.288;12.038;2023-04-16T07:25:01;1012.3120810071648;;;11.915234375;73.08336519059019
61740;BME280;47645;45.288;12.038;2023-04-16T07:35:03;1012.3221567237538;;;12.2923828125;72.12999884212824
61740;BME280;47645;45.288;12.038;2023-04-16T07:45:02;1012.4128201867666;;;12.5779296875;67.99307222110922
61740;BME280;47645;45.288;12.038;2023-04-16T07:55:03;1012.4272500468805;;;12.8275390625;66.97396912505592
61740;BME280;47645;45.288;12.038;2023-04-16T08:00:06;1012.4767006752714;;;12.9041015625;67.51613338367379
61740;BME280;47645;45.288;12.038;2023-04-16T08:10:05;1012.4896381382016;;;13.209765625;64.63974448470078
61740;BME280;47645;45.288;12.038;2023-04-16T08:20:06;1012.6174652339249;;;13.6888671875;61.90984454229315
61740;BME280;47645;45.288;12.038;2023-04-16T08:30:07;1012.7009458334114;;;13.9896484375;60.65544024315762
61740;BME280;47645;45.288;12.038;2023-04-16T08:40:07;1012.7204778003884;;;14.1783203125;58.24422955018544
61740;BME280;47645;45.288;12.038;2023-04-16T08:50:09;1012.7767991258347;;;14.5044921875;55.20316309122519
61740;BME280;47645;45.288;12.038;2023-04-16T09:00:10;1012.8893150325246;;;14.5962890625;52.977220912486004
61740;BME280;47645;45.288;12.038;2023-04-16T09:10:09;1012.8474361539801;;;14.9224609375;57.74130801604287
61740;BME280;47645;45.288;12.038;2023-04-16T09:20:11;1012.8275358377161;;;15.1517578125;55.98385314124812
61740;BME280;47645;45.288;12.038;2023-04-16T09:30:19;1012.8947953873353;;;15.4779296875;56.250786223950506
61740;BME280;47645;45.288;12.038;2023-04-16T09:40:11;1012.918787084826;;;15.5646484375;53.39907331990826
61740;BME280;47645;45.288;12.038;2023-04-16T09:50:14;1012.854936192428;;;16.283203125;57.77691946451819
61740;BME280;47645;45.288;12.038;2023-04-16T10:00:17;1012.84271552563;;;16.701171875;49.54926943287057
61740;BME280;47645;45.288;12.038;2023-04-16T10:10:15;1012.889304703257;;;16.9765625;50.70811649307217
61740;BME280;47645;45.288;12.038;2023-04-16T10:20:17;1012.9142049036479;;;17.74609375;47.847990657913265
61740;BME280;47645;45.288;12.038;2023-04-16T10:30:17;1012.8638455190239;;;19.096875;48.0162020275623
61740;BME280;47645;45.288;12.038;2023-04-16T10:40:21;1012.8425558908507;;;19.53515625;44.62672899749946
61740;BME280;47645;45.288;12.038;2023-04-16T10:50:20;1012.8169347036752;;;20.2947265625;46.755581217566814
61740;BME280;47645;45.288;12.038;2023-04-16T11:00:21;1012.8989020003959;;;20.6056640625;43.91537533118907
61740;BME280;47645;45.288;12.038;2023-04-16T11:10:21;1012.8875440200208;;;19.830859375;42.78546268288623
61740;BME280;47645;45.288;12.038;2023-04-16T11:20:24;1012.8264160608269;;;21.793359375;44.54696657671206
61740;BME280;47645;45.288;12.038;2023-04-16T11:30:29;1012.8177702451171;;;22.5068359375;44.46171828205522
61740;BME280;47645;45.288;12.038;2023-04-16T11:40:29;1012.7704588629401;;;22.221484375;37.72712000809958
61740;BME280;47645;45.288;12.038;2023-04-16T11:50:27;1012.7816785845482;;;23.271484375;42.15361212228358
61740;BME280;47645;45.288;12.038;2023-04-16T12:00:34;1012.7700272256536;;;23.5009765625;42.59359957207469
61740;BME280;47645;45.288;12.038;2023-04-16T12:10:30;1012.781719189215;;;23.980078125;42.948685552944156
61740;BME280;47645;45.288;12.038;2023-04-16T12:20:38;1012.7235133214062;;;23.4142578125;37.46549396774875
61740;BME280;47645;45.288;12.038;2023-04-16T12:30:31;1012.6166066209978;;;24.8720703125;40.65770498371853
61740;BME280;47645;45.288;12.038;2023-04-16T12:40:32;1012.575800933085;;;24.8466796875;40.2575800975688
61740;BME280;47645;45.288;12.038;2023-04-16T12:50:34;1012.5631991006424;;;25.106640625;42.722477612467365
61740;BME280;47645;45.288;12.038;2023-04-16T13:00:35;1012.49950387222;;;25.1880859375;37.092784120873546
61740;BME280;47645;45.288;12.038;2023-04-16T13:10:36;1012.4588115765453;;;25.1576171875;40.40813401203054
61740;BME280;47645;45.288;12.038;2023-04-16T13:20:38;1012.4768722627316;;;25.320703125;40.39637999631209
61740;BME280;47645;45.288;12.038;2023-04-16T13:30:40;1012.5237158823679;;;25.0658203125;41.933752605138345
61740;BME280;47645;45.288;12.038;2023-04-16T13:40:41;1012.5592991011321;;;25.2390625;37.127137265271394
61740;BME280;47645;45.288;12.038;2023-04-16T13:50:42;1012.6224557685001;;;24.912890625;43.955900778633136
61740;BME280;47645;45.288;12.038;2023-04-16T14:00:43;1012.6281999936149;;;25.0708984375;39.433338176252015
61740;BME280;47645;45.288;12.038;2023-04-16T14:10:45;1012.6822329348117;;;24.933203125;42.16521529102162
61740;BME280;47645;45.288;12.038;2023-04-16T14:20:46;1012.7062400434068;;;24.7345703125;41.85169068117314
61740;BME280;47645;45.288;12.038;2023-04-16T14:30:47;1012.7752407192903;;;23.6384765625;32.702837106693316
61740;BME280;47645;45.288;12.038;2023-04-16T14:40:49;1012.7211530113941;;;23.3734375;40.553443343499644
61740;BME280;47645;45.288;12.038;2023-04-16T14:50:50;1012.6891746101547;;;23.689453125;42.34589299647574
61740;BME280;47645;45.288;12.038;2023-04-16T15:00:51;1012.7377930719329;;;23.03203125;35.45021831808274
61740;BME280;47645;45.288;12.038;2023-04-16T15:10:52;1012.78501311327;;;22.9962890625;41.321282965438364
61740;BME280;47645;45.288;12.038;2023-04-16T15:20:54;1012.7812222651123;;;22.2876953125;43.93556515537737
61740;BME280;47645;45.288;12.038;2023-04-16T15:30:55;1012.8138031794084;;;21.900390625;39.52716745790173
61740;BME280;47645;45.288;12.038;2023-04-16T15:40:57;1012.8614861773267;;;22.1806640625;39.16346183221024
61740;BME280;47645;45.288;12.038;2023-04-16T15:50:57;1012.986421594483;;;21.4875;39.38956485506829
61740;BME280;47645;45.288;12.038;2023-04-16T16:00:58;1013.0229497435685;;;20.549609375;43.35827441414258
61740;BME280;47645;45.288;12.038;2023-04-16T16:10:59;1013.0543043131491;;;20.569921875;44.95900689872245
61740;BME280;47645;45.288;12.038;2023-04-16T16:21:03;1013.1677024071688;;;20.35078125;43.689466213829554
61740;BME280;47645;45.288;12.038;2023-04-16T16:31:06;1013.1417147985652;;;19.723828125;44.27370466647663
61740;BME280;47645;45.288;12.038;2023-04-16T16:41:02;1013.0707362274998;;;19.20390625;46.48681586956458
61740;BME280;47645;45.288;12.038;2023-04-16T16:51:08;1013.1047032489723;;;18.9337890625;47.63627713477519
61740;BME280;47645;45.288;12.038;2023-04-16T17:01:05;1013.1464965249148;;;18.7248046875;49.06473208444541
61740;BME280;47645;45.288;12.038;2023-04-16T17:11:06;1013.0799290265591;;;18.4240234375;49.257805832914514
61740;BME280;47645;45.288;12.038;2023-04-16T17:21:07;1013.1742178139608;;;17.86328125;49.23960987932652
61740;BME280;47645;45.288;12.038;2023-04-16T17:31:08;1013.2783413919076;;;17.6798828125;52.29055514118917
61740;BME280;47645;45.288;12.038;2023-04-16T17:41:09;1013.4110784192462;;;17.4607421875;53.89178571729998
61740;BME280;47645;45.288;12.038;2023-04-16T17:51:11;1013.3733353452843;;;17.216015625;55.81930837246895
61740;BME280;47645;45.288;12.038;2023-04-16T18:01:11;1013.4305530831798;;;16.9;57.62117682693709
61740;BME280;47645;45.288;12.038;2023-04-16T18:11:12;1013.4276264689471;;;16.55859375;58.15048337262415
61740;BME280;47645;45.288;12.038;2023-04-16T18:21:13;1013.6341163544398;;;16.0232421875;60.58116837148779
61740;BME280;47645;45.288;12.038;2023-04-16T18:31:14;1013.6614231913467;;;15.748046875;62.486429329375326
61740;BME280;47645;45.288;12.038;2023-04-16T18:41:15;1013.7935228571322;;;15.396484375;62.920448639017586
61740;BME280;47645;45.288;12.038;2023-04-16T18:51:16;1013.8507610253705;;;15.3658203125;63.6725534459634
61740;BME280;47645;45.288;12.038;2023-04-16T19:01:17;1014.0116913051392;;;14.891796875;63.776250438880055
61740;BME280;47645;45.288;12.038;2023-04-16T19:11:17;1014.100932136464;;;14.9478515625;64.89931848032052
61740;BME280;47645;45.288;12.038;2023-04-16T19:21:18;1014.0737099146285;;;14.7236328125;65.49990814127321
61740;BME280;47645;45.288;12.038;2023-04-16T19:31:19;1014.0722852305403;;;14.3208984375;67.21078959814739
61740;BME280;47645;45.288;12.038;2023-04-16T19:41:20;1014.0872105160155;;;13.7296875;65.61372829064396
61740;BME280;47645;45.288;12.038;2023-04-16T19:51:21;1014.1386962244484;;;13.8623046875;67.38865418495564
61740;BME280;47645;45.288;12.038;2023-04-16T20:01:23;1014.1851850639308;;;13.5666015625;69.22631121710452
61740;BME280;47645;45.288;12.038;2023-04-16T20:11:24;1014.2155870040649;;;13.17421875;68.10677879934603
61740;BME280;47645;45.288;12.038;2023-04-16T20:21:24;1014.1949007854544;;;13.1130859375;68.76908096900792
61740;BME280;47645;45.288;12.038;2023-04-16T20:31:25;1014.1410161562886;;;12.985546875;70.86373077049234
61740;BME280;47645;45.288;12.038;2023-04-16T20:41:26;1014.2214776083816;;;13.2150390625;69.59825952448777
61740;BME280;47645;45.288;12.038;2023-04-16T20:51:27;1014.1626215828805;;;12.7970703125;70.28458611518583
61740;BME280;47645;45.288;12.038;2023-04-16T21:01:27;1014.1083037523282;;;13.0875;70.46834188593195
61740;BME280;47645;45.288;12.038;2023-04-16T21:11:32;1014.0903873442509;;;12.526953125;70.43935067314713
61740;BME280;47645;45.288;12.038;2023-04-16T21:21:29;1014.1211918626069;;;12.2822265625;72.98931584420629
61740;BME280;47645;45.288;12.038;2023-04-16T21:31:29;1014.0439729512759;;;12.4044921875;70.32907092960029
61740;BME280;47645;45.288;12.038;2023-04-16T21:41:30;1014.1026839187662;;;12.5064453125;71.91265332384177
61740;BME280;47645;45.288;12.038;2023-04-16T21:51:31;1014.0566551038023;;;12.5625;71.26354771023703
61740;BME280;47645;45.288;12.038;2023-04-16T22:01:31;1014.0804130553647;;;12.3943359375;71.23417432155715
61740;BME280;47645;45.288;12.038;2023-04-16T22:11:32;1013.9801193286349;;;12.0833984375;72.66232533585938
61740;BME280;47645;45.288;12.038;2023-04-16T22:21:33;1013.9415854463767;;;12.098828125;72.23185165415886
61740;BME280;47645;45.288;12.038;2023-04-16T22:31:34;1013.9611959379588;;;11.915234375;72.53159417902317
61740;BME280;47645;45.288;12.038;2023-04-16T22:41:35;1013.9996730639613;;;11.8744140625;72.41526414216615
61740;BME280;47645;45.288;12.038;2023-04-16T22:51:35;1013.9200725344647;;;11.7216796875;72.71633908627145
61740;BME280;47645;45.288;12.038;2023-04-16T23:01:36;1013.8943205108866;;;11.4056640625;73.45581045838478
61740;BME280;47645;45.288;12.038;2023-04-16T23:11:37;1013.8146628594848;;;11.0998046875;74.93277037556582
61740;BME280;47645;45.288;12.038;2023-04-16T23:21:38;1013.8425919093971;;;11.18125;74.38743567587163
61740;BME280;47645;45.288;12.038;2023-04-16T23:31:38;1013.7600910791105;;;10.6818359375;76.76454889453134
61740;BME280;47645;45.288;12.038;2023-04-16T23:41:39;1013.6950214997954;;;10.6767578125;76.56277048570759
61740;BME280;47645;45.288;12.038;2023-04-16T23:51:40;1013.7519612341655;;;10.9671875;75.18299155443708
